sensor_id;sensor_type;location;lat;lon;timestamp;temperature;humidity
21815;DHT22;11069;48.988;8.450;2023-03-01T00:01:02;-1.00;99.90
21815;DHT22;11069;48.988;8.450;2023-03-01T00:03:28;-1.10;99.90
21815;DHT22;11069;48.988;8.450;2023-03-01T00:05:54;-1.20;99.90
21815;DHT22;11069;48.988;8.450;2023-03-01T00:08:19;-1.30;99.90
21815;DHT22;11069;48.988;8.450;2023-03-01T00:10:45;-1.40;99.90
21815;DHT22;11069;48.988;8.450;2023-03-01T00:13:11;-1.40;99.90
21815;DHT22;11069;48.988;8.450;2023-03-01T00:15:40;-1.30;99.90
21815;DHT22;11069;48.988;8.450;2023-03-01T00:18:07;-1.30;99.90
21815;DHT22;11069;48.988;8.450;2023-03-01T00:20:32;-1.30;99.90
21815;DHT22;11069;48.988;8.450;2023-03-01T00:22:58;-1.40;99.90
21815;DHT22;11069;48.988;8.450;2023-03-01T00:25:23;-1.30;99.90
21815;DHT22;11069;48.988;8.450;2023-03-01T00:27:49;-1.40;99.90
21815;DHT22;11069;48.988;8.450;2023-03-01T00:30:15;-1.50;99.90
21815;DHT22;11069;48.988;8.450;2023-03-01T00:32:40;-1.40;99.90
21815;DHT22;11069;48.988;8.450;2023-03-01T00:35:06;-1.30;99.90
21815;DHT22;11069;48.988;8.450;2023-03-01T00:37:32;-1.30;99.90
21815;DHT22;11069;48.988;8.450;2023-03-01T00:39:57;-1.40;99.90
21815;DHT22;11069;48.988;8.450;2023-03-01T00:42:23;-1.40;99.90
21815;DHT22;11069;48.988;8.450;2023-03-01T00:44:49;-1.40;99.90
21815;DHT22;11069;48.988;8.450;2023-03-01T00:47:14;-1.50;99.90
21815;DHT22;11069;48.988;8.450;2023-03-01T00:49:40;-1.60;99.90
21815;DHT22;11069;48.988;8.450;2023-03-01T00:52:05;-1.60;99.90
21815;DHT22;11069;48.988;8.450;2023-03-01T00:54:31;-1.50;99.90
21815;DHT22;11069;48.988;8.450;2023-03-01T00:56:56;-1.40;99.90
21815;DHT22;11069;48.988;8.450;2023-03-01T00:59:22;-1.50;99.90
21815;DHT22;11069;48.988;8.450;2023-03-01T01:01:48;-1.40;99.90
21815;DHT22;11069;48.988;8.450;2023-03-01T01:04:13;-1.30;99.90
21815;DHT22;11069;48.988;8.450;2023-03-01T01:06:45;-1.30;99.90
21815;DHT22;11069;48.988;8.450;2023-03-01T01:09:13;-1.30;99.90
21815;DHT22;11069;48.988;8.450;2023-03-01T01:11:46;-1.30;99.90
21815;DHT22;11069;48.988;8.450;2023-03-01T01:14:12;-1.20;99.90
21815;DHT22;11069;48.988;8.450;2023-03-01T01:16:38;-1.20;99.90
21815;DHT22;11069;48.988;8.450;2023-03-01T01:19:04;-1.20;99.90
21815;DHT22;11069;48.988;8.450;2023-03-01T01:21:31;-1.20;99.90
21815;DHT22;11069;48.988;8.450;2023-03-01T01:23:57;-1.30;99.90
21815;DHT22;11069;48.988;8.450;2023-03-01T01:26:30;-1.30;99.90
21815;DHT22;11069;48.988;8.450;2023-03-01T01:28:55;-1.30;99.90
21815;DHT22;11069;48.988;8.450;2023-03-01T01:31:22;-1.30;99.90
21815;DHT22;11069;48.988;8.450;2023-03-01T01:33:49;-1.30;99.90
21815;DHT22;11069;48.988;8.450;2023-03-01T01:36:15;-1.20;99.90
21815;DHT22;11069;48.988;8.450;2023-03-01T01:38:41;-1.10;99.90
21815;DHT22;11069;48.988;8.450;2023-03-01T01:41:09;-1.10;99.90
21815;DHT22;11069;48.988;8.450;2023-03-01T01:43:42;-1.10;99.90
21815;DHT22;11069;48.988;8.450;2023-03-01T01:48:54;-1.10;99.90
21815;DHT22;11069;48.988;8.450;2023-03-01T01:51:28;-1.10;99.90
21815;DHT22;11069;48.988;8.450;2023-03-01T01:54:06;-1.10;99.90
21815;DHT22;11069;48.988;8.450;2023-03-01T01:56:33;-1.20;99.90
21815;DHT22;11069;48.988;8.450;2023-03-01T01:58:58;-1.20;99.90
21815;DHT22;11069;48.988;8.450;2023-03-01T02:01:24;-1.20;99.90
21815;DHT22;11069;48.988;8.450;2023-03-01T02:03:50;-1.30;99.90
21815;DHT22;11069;48.988;8.450;2023-03-01T02:06:46;-1.30;99.90
21815;DHT22;11069;48.988;8.450;2023-03-01T02:09:14;-1.30;99.90
21815;DHT22;11069;48.988;8.450;2023-03-01T02:11:41;-1.30;99.90
21815;DHT22;11069;48.988;8.450;2023-03-01T02:14:08;-1.30;99.90
21815;DHT22;11069;48.988;8.450;2023-03-01T02:16:34;-1.30;99.90
21815;DHT22;11069;48.988;8.450;2023-03-01T02:19:00;-1.30;99.90
21815;DHT22;11069;48.988;8.450;2023-03-01T02:21:37;-1.30;99.90
21815;DHT22;11069;48.988;8.450;2023-03-01T02:25:03;-1.40;99.90
21815;DHT22;11069;48.988;8.450;2023-03-01T02:27:01;-1.40;99.90
21815;DHT22;11069;48.988;8.450;2023-03-01T02:29:28;-1.40;99.90
21815;DHT22;11069;48.988;8.450;2023-03-01T02:31:56;-1.40;99.90
21815;DHT22;11069;48.988;8.450;2023-03-01T02:34:24;-1.40;99.90
21815;DHT22;11069;48.988;8.450;2023-03-01T02:37:02;-1.50;99.90
21815;DHT22;11069;48.988;8.450;2023-03-01T02:39:48;-1.50;99.90
21815;DHT22;11069;48.988;8.450;2023-03-01T02:42:18;-1.60;99.90
21815;DHT22;11069;48.988;8.450;2023-03-01T02:44:46;-1.60;99.90
21815;DHT22;11069;48.988;8.450;2023-03-01T02:47:13;-1.60;99.90
21815;DHT22;11069;48.988;8.450;2023-03-01T02:49:39;-1.60;99.90
21815;DHT22;11069;48.988;8.450;2023-03-01T02:57:14;-1.70;99.90
21815;DHT22;11069;48.988;8.450;2023-03-01T02:59:42;-1.80;99.90
21815;DHT22;11069;48.988;8.450;2023-03-01T03:02:19;-1.80;99.90
21815;DHT22;11069;48.988;8.450;2023-03-01T03:04:47;-1.80;99.90
21815;DHT22;11069;48.988;8.450;2023-03-01T03:07:13;-1.90;99.90
21815;DHT22;11069;48.988;8.450;2023-03-01T03:09:39;-1.90;99.90
21815;DHT22;11069;48.988;8.450;2023-03-01T03:12:05;-1.90;99.90
21815;DHT22;11069;48.988;8.450;2023-03-01T03:14:30;-2.00;99.90
21815;DHT22;11069;48.988;8.450;2023-03-01T03:17:00;-2.10;99.90
21815;DHT22;11069;48.988;8.450;2023-03-01T03:19:25;-2.10;99.90
21815;DHT22;11069;48.988;8.450;2023-03-01T03:21:51;-2.30;99.90
21815;DHT22;11069;48.988;8.450;2023-03-01T03:24:17;-2.40;99.90
21815;DHT22;11069;48.988;8.450;2023-03-01T03:26:43;-2.30;99.90
21815;DHT22;11069;48.988;8.450;2023-03-01T03:29:09;-2.30;99.90
21815;DHT22;11069;48.988;8.450;2023-03-01T03:31:34;-2.20;99.90
21815;DHT22;11069;48.988;8.450;2023-03-01T03:34:00;-2.20;99.90
21815;DHT22;11069;48.988;8.450;2023-03-01T03:36:25;-2.30;99.90
21815;DHT22;11069;48.988;8.450;2023-03-01T03:38:51;-2.40;99.90
21815;DHT22;11069;48.988;8.450;2023-03-01T03:41:17;-2.50;99.90
21815;DHT22;11069;48.988;8.450;2023-03-01T03:43:43;-2.50;99.90
21815;DHT22;11069;48.988;8.450;2023-03-01T03:46:10;-2.60;99.90
21815;DHT22;11069;48.988;8.450;2023-03-01T03:48:43;-2.50;99.90
21815;DHT22;11069;48.988;8.450;2023-03-01T03:51:11;-2.40;99.90
21815;DHT22;11069;48.988;8.450;2023-03-01T03:53:37;-2.40;99.90
21815;DHT22;11069;48.988;8.450;2023-03-01T03:56:03;-2.50;99.90
21815;DHT22;11069;48.988;8.450;2023-03-01T03:58:29;-2.60;99.90
21815;DHT22;11069;48.988;8.450;2023-03-01T04:00:56;-2.60;99.90
21815;DHT22;11069;48.988;8.450;2023-03-01T04:03:23;-2.70;99.90
21815;DHT22;11069;48.988;8.450;2023-03-01T04:05:49;-2.80;99.90
21815;DHT22;11069;48.988;8.450;2023-03-01T04:08:22;-2.80;99.90
21815;DHT22;11069;48.988;8.450;2023-03-01T04:10:50;-2.70;99.90
21815;DHT22;11069;48.988;8.450;2023-03-01T04:13:21;-2.80;99.90
21815;DHT22;11069;48.988;8.450;2023-03-01T04:15:50;-2.80;99.90
21815;DHT22;11069;48.988;8.450;2023-03-01T04:18:17;-2.80;99.90
21815;DHT22;11069;48.988;8.450;2023-03-01T04:20:46;-2.90;99.90
21815;DHT22;11069;48.988;8.450;2023-03-01T04:23:17;-3.10;99.90
21815;DHT22;11069;48.988;8.450;2023-03-01T04:28:24;-3.10;99.90
21815;DHT22;11069;48.988;8.450;2023-03-01T04:30:51;-3.20;99.90
21815;DHT22;11069;48.988;8.450;2023-03-01T04:33:17;-3.10;99.90
21815;DHT22;11069;48.988;8.450;2023-03-01T04:35:43;-3.00;99.90
21815;DHT22;11069;48.988;8.450;2023-03-01T04:38:09;-2.80;99.90
21815;DHT22;11069;48.988;8.450;2023-03-01T04:40:35;-2.80;99.90
21815;DHT22;11069;48.988;8.450;2023-03-01T04:43:01;-2.80;99.90
21815;DHT22;11069;48.988;8.450;2023-03-01T04:45:27;-2.80;99.90
21815;DHT22;11069;48.988;8.450;2023-03-01T04:47:53;-2.90;99.90
21815;DHT22;11069;48.988;8.450;2023-03-01T04:50:19;-3.00;99.90
21815;DHT22;11069;48.988;8.450;2023-03-01T04:52:49;-2.90;99.90
21815;DHT22;11069;48.988;8.450;2023-03-01T04:55:14;-3.00;99.90
21815;DHT22;11069;48.988;8.450;2023-03-01T04:57:40;-3.00;99.90
21815;DHT22;11069;48.988;8.450;2023-03-01T05:00:09;-3.00;99.90
21815;DHT22;11069;48.988;8.450;2023-03-01T05:02:56;-2.90;99.90
21815;DHT22;11069;48.988;8.450;2023-03-01T05:05:27;-2.90;99.90
21815;DHT22;11069;48.988;8.450;2023-03-01T05:08:01;-3.00;99.90
21815;DHT22;11069;48.988;8.450;2023-03-01T05:10:29;-2.90;99.90
21815;DHT22;11069;48.988;8.450;2023-03-01T05:12:59;-2.90;99.90
21815;DHT22;11069;48.988;8.450;2023-03-01T05:15:26;-2.90;99.90
21815;DHT22;11069;48.988;8.450;2023-03-01T05:17:53;-2.80;99.90
21815;DHT22;11069;48.988;8.450;2023-03-01T05:20:19;-2.70;99.90
21815;DHT22;11069;48.988;8.450;2023-03-01T05:22:48;-2.70;99.90
21815;DHT22;11069;48.988;8.450;2023-03-01T05:25:14;-2.70;99.90
21815;DHT22;11069;48.988;8.450;2023-03-01T05:27:40;-2.80;99.90
21815;DHT22;11069;48.988;8.450;2023-03-01T05:30:06;-2.70;99.90
21815;DHT22;11069;48.988;8.450;2023-03-01T05:32:46;-2.70;99.90
21815;DHT22;11069;48.988;8.450;2023-03-01T05:35:14;-2.80;99.90
21815;DHT22;11069;48.988;8.450;2023-03-01T05:37:42;-2.70;99.90
21815;DHT22;11069;48.988;8.450;2023-03-01T05:40:10;-2.80;99.90
21815;DHT22;11069;48.988;8.450;2023-03-01T05:42:44;-2.80;99.90
21815;DHT22;11069;48.988;8.450;2023-03-01T05:45:10;-2.80;99.90
21815;DHT22;11069;48.988;8.450;2023-03-01T05:47:38;-2.70;99.90
21815;DHT22;11069;48.988;8.450;2023-03-01T05:50:05;-2.60;99.90
21815;DHT22;11069;48.988;8.450;2023-03-01T05:52:32;-2.70;99.90
21815;DHT22;11069;48.988;8.450;2023-03-01T05:54:58;-2.70;99.90
21815;DHT22;11069;48.988;8.450;2023-03-01T05:57:23;-2.60;99.90
21815;DHT22;11069;48.988;8.450;2023-03-01T05:59:49;-2.50;99.90
21815;DHT22;11069;48.988;8.450;2023-03-01T06:02:14;-2.30;99.90
21815;DHT22;11069;48.988;8.450;2023-03-01T06:04:40;-2.40;99.90
21815;DHT22;11069;48.988;8.450;2023-03-01T06:07:05;-2.20;99.90
21815;DHT22;11069;48.988;8.450;2023-03-01T06:09:31;-2.20;99.90
21815;DHT22;11069;48.988;8.450;2023-03-01T06:11:56;-2.30;99.90
21815;DHT22;11069;48.988;8.450;2023-03-01T06:14:22;-2.20;99.90
21815;DHT22;11069;48.988;8.450;2023-03-01T06:16:47;-2.10;99.90
21815;DHT22;11069;48.988;8.450;2023-03-01T06:19:13;-2.10;99.90
21815;DHT22;11069;48.988;8.450;2023-03-01T06:21:39;-2.10;99.90
21815;DHT22;11069;48.988;8.450;2023-03-01T06:24:04;-2.10;99.90
21815;DHT22;11069;48.988;8.450;2023-03-01T06:26:32;-1.90;99.90
21815;DHT22;11069;48.988;8.450;2023-03-01T06:28:58;-1.90;99.90
21815;DHT22;11069;48.988;8.450;2023-03-01T06:31:23;-1.80;99.90
21815;DHT22;11069;48.988;8.450;2023-03-01T06:33:49;-1.70;99.90
21815;DHT22;11069;48.988;8.450;2023-03-01T06:36:14;-1.60;99.90
21815;DHT22;11069;48.988;8.450;2023-03-01T06:38:44;-1.60;99.90
21815;DHT22;11069;48.988;8.450;2023-03-01T06:41:09;-1.60;99.90
21815;DHT22;11069;48.988;8.450;2023-03-01T06:43:35;-1.60;99.90
21815;DHT22;11069;48.988;8.450;2023-03-01T06:46:04;-1.60;99.90
21815;DHT22;11069;48.988;8.450;2023-03-01T06:48:30;-1.60;99.90
21815;DHT22;11069;48.988;8.450;2023-03-01T06:50:58;-1.60;99.90
21815;DHT22;11069;48.988;8.450;2023-03-01T06:53:24;-1.40;99.90
21815;DHT22;11069;48.988;8.450;2023-03-01T06:55:57;-1.30;99.90
21815;DHT22;11069;48.988;8.450;2023-03-01T06:58:24;-1.30;99.90
21815;DHT22;11069;48.988;8.450;2023-03-01T07:00:50;-1.10;99.90
21815;DHT22;11069;48.988;8.450;2023-03-01T07:03:15;-1.00;99.90
21815;DHT22;11069;48.988;8.450;2023-03-01T07:05:41;-0.90;99.90
21815;DHT22;11069;48.988;8.450;2023-03-01T07:08:06;-0.70;99.90
21815;DHT22;11069;48.988;8.450;2023-03-01T07:10:32;-0.30;99.90
21815;DHT22;11069;48.988;8.450;2023-03-01T07:12:58;0.30;99.90
21815;DHT22;11069;48.988;8.450;2023-03-01T07:15:25;0.90;99.90
21815;DHT22;11069;48.988;8.450;2023-03-01T07:17:51;1.40;99.90
21815;DHT22;11069;48.988;8.450;2023-03-01T07:20:18;1.60;99.90
21815;DHT22;11069;48.988;8.450;2023-03-01T07:22:44;1.40;99.90
21815;DHT22;11069;48.988;8.450;2023-03-01T07:25:10;1.90;99.90
21815;DHT22;11069;48.988;8.450;2023-03-01T07:27:36;2.00;99.90
21815;DHT22;11069;48.988;8.450;2023-03-01T07:30:02;2.60;99.90
21815;DHT22;11069;48.988;8.450;2023-03-01T07:32:28;2.50;99.90
21815;DHT22;11069;48.988;8.450;2023-03-01T07:34:54;2.60;99.90
21815;DHT22;11069;48.988;8.450;2023-03-01T07:37:19;2.70;99.90
21815;DHT22;11069;48.988;8.450;2023-03-01T07:39:45;2.60;99.90
21815;DHT22;11069;48.988;8.450;2023-03-01T07:42:11;2.90;99.90
21815;DHT22;11069;48.988;8.450;2023-03-01T07:44:36;3.10;99.90
21815;DHT22;11069;48.988;8.450;2023-03-01T07:47:03;3.50;99.90
21815;DHT22;11069;48.988;8.450;2023-03-01T07:49:29;2.90;99.90
21815;DHT22;11069;48.988;8.450;2023-03-01T07:51:55;3.10;99.90
21815;DHT22;11069;48.988;8.450;2023-03-01T07:54:21;3.20;99.90
21815;DHT22;11069;48.988;8.450;2023-03-01T07:56:47;3.50;99.90
21815;DHT22;11069;48.988;8.450;2023-03-01T07:59:12;3.70;99.90
21815;DHT22;11069;48.988;8.450;2023-03-01T08:01:38;4.00;99.90
21815;DHT22;11069;48.988;8.450;2023-03-01T08:04:04;4.20;99.90
21815;DHT22;11069;48.988;8.450;2023-03-01T08:06:33;4.80;99.90
21815;DHT22;11069;48.988;8.450;2023-03-01T08:08:59;4.30;99.90
21815;DHT22;11069;48.988;8.450;2023-03-01T08:11:25;4.30;99.90
21815;DHT22;11069;48.988;8.450;2023-03-01T08:13:50;4.20;99.90
21815;DHT22;11069;48.988;8.450;2023-03-01T08:16:16;4.00;99.90
21815;DHT22;11069;48.988;8.450;2023-03-01T08:18:42;3.50;99.90
21815;DHT22;11069;48.988;8.450;2023-03-01T08:21:12;3.60;99.90
21815;DHT22;11069;48.988;8.450;2023-03-01T08:23:38;4.10;99.90
21815;DHT22;11069;48.988;8.450;2023-03-01T08:26:33;3.90;99.90
21815;DHT22;11069;48.988;8.450;2023-03-01T08:29:00;3.50;99.90
21815;DHT22;11069;48.988;8.450;2023-03-01T08:33:58;3.60;99.90
21815;DHT22;11069;48.988;8.450;2023-03-01T08:36:27;3.70;99.90
21815;DHT22;11069;48.988;8.450;2023-03-01T08:38:53;3.70;99.90
21815;DHT22;11069;48.988;8.450;2023-03-01T08:41:19;3.90;99.90
21815;DHT22;11069;48.988;8.450;2023-03-01T08:43:45;4.30;99.90
21815;DHT22;11069;48.988;8.450;2023-03-01T08:46:11;4.60;99.90
21815;DHT22;11069;48.988;8.450;2023-03-01T08:48:36;4.80;99.90
21815;DHT22;11069;48.988;8.450;2023-03-01T08:51:10;4.80;99.90
21815;DHT22;11069;48.988;8.450;2023-03-01T08:53:35;4.70;99.90
21815;DHT22;11069;48.988;8.450;2023-03-01T08:56:01;4.50;99.90
21815;DHT22;11069;48.988;8.450;2023-03-01T08:58:30;4.70;99.90
21815;DHT22;11069;48.988;8.450;2023-03-01T09:00:56;5.30;99.90
21815;DHT22;11069;48.988;8.450;2023-03-01T09:03:25;5.80;99.80
21815;DHT22;11069;48.988;8.450;2023-03-01T09:05:52;6.20;99.30
21815;DHT22;11069;48.988;8.450;2023-03-01T09:08:18;6.20;98.60
21815;DHT22;11069;48.988;8.450;2023-03-01T09:10:46;6.40;97.60
21815;DHT22;11069;48.988;8.450;2023-03-01T09:13:12;6.10;98.40
21815;DHT22;11069;48.988;8.450;2023-03-01T09:15:38;5.90;98.70
21815;DHT22;11069;48.988;8.450;2023-03-01T09:18:04;6.10;97.60
21815;DHT22;11069;48.988;8.450;2023-03-01T09:20:30;5.90;98.10
21815;DHT22;11069;48.988;8.450;2023-03-01T09:22:57;5.80;98.50
21815;DHT22;11069;48.988;8.450;2023-03-01T09:25:22;5.70;98.10
21815;DHT22;11069;48.988;8.450;2023-03-01T09:27:51;6.20;97.70
21815;DHT22;11069;48.988;8.450;2023-03-01T09:30:17;6.90;96.20
21815;DHT22;11069;48.988;8.450;2023-03-01T09:32:43;7.20;95.30
21815;DHT22;11069;48.988;8.450;2023-03-01T09:35:10;7.10;95.70
21815;DHT22;11069;48.988;8.450;2023-03-01T09:37:37;7.80;95.10
21815;DHT22;11069;48.988;8.450;2023-03-01T09:40:04;7.60;94.70
21815;DHT22;11069;48.988;8.450;2023-03-01T09:42:32;7.20;95.40
21815;DHT22;11069;48.988;8.450;2023-03-01T09:45:14;6.60;96.70
21815;DHT22;11069;48.988;8.450;2023-03-01T09:47:45;6.20;97.10
21815;DHT22;11069;48.988;8.450;2023-03-01T09:55:39;7.00;96.70
21815;DHT22;11069;48.988;8.450;2023-03-01T10:00:49;7.50;95.20
21815;DHT22;11069;48.988;8.450;2023-03-01T10:03:22;7.60;95.30
21815;DHT22;11069;48.988;8.450;2023-03-01T10:06:02;7.60;95.50
21815;DHT22;11069;48.988;8.450;2023-03-01T10:08:37;7.10;96.10
21815;DHT22;11069;48.988;8.450;2023-03-01T10:11:24;7.10;96.60
21815;DHT22;11069;48.988;8.450;2023-03-01T10:16:47;7.00;96.10
21815;DHT22;11069;48.988;8.450;2023-03-01T10:19:29;7.00;96.40
21815;DHT22;11069;48.988;8.450;2023-03-01T10:22:00;6.50;96.70
21815;DHT22;11069;48.988;8.450;2023-03-01T10:24:32;6.90;96.80
21815;DHT22;11069;48.988;8.450;2023-03-01T10:27:24;7.70;95.80
21815;DHT22;11069;48.988;8.450;2023-03-01T10:32:45;7.60;96.30
21815;DHT22;11069;48.988;8.450;2023-03-01T10:35:19;8.50;94.20
21815;DHT22;11069;48.988;8.450;2023-03-01T10:38:23;8.10;94.30
21815;DHT22;11069;48.988;8.450;2023-03-01T10:41:04;7.60;95.50
21815;DHT22;11069;48.988;8.450;2023-03-01T10:43:57;7.40;94.70
21815;DHT22;11069;48.988;8.450;2023-03-01T10:46:35;6.70;95.90
21815;DHT22;11069;48.988;8.450;2023-03-01T10:51:32;7.30;95.50
21815;DHT22;11069;48.988;8.450;2023-03-01T10:53:58;8.10;95.10
21815;DHT22;11069;48.988;8.450;2023-03-01T10:56:24;8.10;94.00
21815;DHT22;11069;48.988;8.450;2023-03-01T10:58:57;8.20;94.60
21815;DHT22;11069;48.988;8.450;2023-03-01T11:01:26;8.10;94.50
21815;DHT22;11069;48.988;8.450;2023-03-01T11:04:10;8.40;94.00
21815;DHT22;11069;48.988;8.450;2023-03-01T11:06:40;8.20;94.20
21815;DHT22;11069;48.988;8.450;2023-03-01T11:09:21;8.50;94.60
21815;DHT22;11069;48.988;8.450;2023-03-01T11:11:52;8.70;93.60
21815;DHT22;11069;48.988;8.450;2023-03-01T11:14:22;8.70;94.10
21815;DHT22;11069;48.988;8.450;2023-03-01T11:17:02;7.90;94.10
21815;DHT22;11069;48.988;8.450;2023-03-01T11:19:27;8.20;93.50
21815;DHT22;11069;48.988;8.450;2023-03-01T11:22:01;8.50;92.60
21815;DHT22;11069;48.988;8.450;2023-03-01T11:24:51;8.90;92.20
21815;DHT22;11069;48.988;8.450;2023-03-01T11:27:38;8.90;92.30
21815;DHT22;11069;48.988;8.450;2023-03-01T11:33:03;8.60;91.90
21815;DHT22;11069;48.988;8.450;2023-03-01T11:35:30;8.70;92.00
21815;DHT22;11069;48.988;8.450;2023-03-01T11:40:57;9.40;92.20
21815;DHT22;11069;48.988;8.450;2023-03-01T11:43:35;9.00;92.60
21815;DHT22;11069;48.988;8.450;2023-03-01T11:57:17;9.00;92.40
21815;DHT22;11069;48.988;8.450;2023-03-01T11:59:58;9.30;92.30
21815;DHT22;11069;48.988;8.450;2023-03-01T12:05:23;9.70;91.90
21815;DHT22;11069;48.988;8.450;2023-03-01T12:11:06;10.40;91.50
21815;DHT22;11069;48.988;8.450;2023-03-01T12:19:26;10.70;90.40
21815;DHT22;11069;48.988;8.450;2023-03-01T12:24:54;10.70;88.10
21815;DHT22;11069;48.988;8.450;2023-03-01T12:36:34;9.80;91.20
21815;DHT22;11069;48.988;8.450;2023-03-01T12:45:40;10.80;88.10
21815;DHT22;11069;48.988;8.450;2023-03-01T12:48:06;11.60;86.20
21815;DHT22;11069;48.988;8.450;2023-03-01T12:50:41;11.40;86.70
21815;DHT22;11069;48.988;8.450;2023-03-01T12:53:24;11.50;86.50
21815;DHT22;11069;48.988;8.450;2023-03-01T12:55:52;11.20;87.30
21815;DHT22;11069;48.988;8.450;2023-03-01T12:58:29;10.70;88.50
21815;DHT22;11069;48.988;8.450;2023-03-01T13:01:05;10.30;88.40
21815;DHT22;11069;48.988;8.450;2023-03-01T13:11:33;10.60;87.80
21815;DHT22;11069;48.988;8.450;2023-03-01T13:16:52;11.40;86.20
21815;DHT22;11069;48.988;8.450;2023-03-01T13:19:22;11.00;86.40
21815;DHT22;11069;48.988;8.450;2023-03-01T13:21:50;10.90;85.80
21815;DHT22;11069;48.988;8.450;2023-03-01T13:29:47;10.80;86.90
21815;DHT22;11069;48.988;8.450;2023-03-01T13:37:50;11.30;86.60
21815;DHT22;11069;48.988;8.450;2023-03-01T13:42:48;11.10;84.80
21815;DHT22;11069;48.988;8.450;2023-03-01T13:47:45;11.10;85.80
21815;DHT22;11069;48.988;8.450;2023-03-01T13:50:26;11.90;83.70
21815;DHT22;11069;48.988;8.450;2023-03-01T13:52:59;12.70;83.40
21815;DHT22;11069;48.988;8.450;2023-03-01T13:55:46;12.70;80.90
21815;DHT22;11069;48.988;8.450;2023-03-01T13:58:21;12.80;78.70
21815;DHT22;11069;48.988;8.450;2023-03-01T14:00:55;12.00;80.40
21815;DHT22;11069;48.988;8.450;2023-03-01T14:03:21;12.20;83.00
21815;DHT22;11069;48.988;8.450;2023-03-01T14:06:06;12.00;81.90
21815;DHT22;11069;48.988;8.450;2023-03-01T14:08:33;11.40;82.20
21815;DHT22;11069;48.988;8.450;2023-03-01T14:14:25;11.20;85.90
21815;DHT22;11069;48.988;8.450;2023-03-01T14:19:30;12.70;81.00
21815;DHT22;11069;48.988;8.450;2023-03-01T14:22:23;12.70;80.90
21815;DHT22;11069;48.988;8.450;2023-03-01T14:24:59;12.50;80.80
21815;DHT22;11069;48.988;8.450;2023-03-01T14:27:30;11.90;79.90
21815;DHT22;11069;48.988;8.450;2023-03-01T14:30:02;11.70;81.60
21815;DHT22;11069;48.988;8.450;2023-03-01T14:32:30;11.90;82.40
21815;DHT22;11069;48.988;8.450;2023-03-01T14:34:58;11.40;83.70
21815;DHT22;11069;48.988;8.450;2023-03-01T14:37:32;11.30;85.40
21815;DHT22;11069;48.988;8.450;2023-03-01T14:40:00;11.10;83.50
21815;DHT22;11069;48.988;8.450;2023-03-01T14:42:29;10.60;85.10
21815;DHT22;11069;48.988;8.450;2023-03-01T14:44:57;10.40;86.80
21815;DHT22;11069;48.988;8.450;2023-03-01T14:47:28;9.80;87.40
21815;DHT22;11069;48.988;8.450;2023-03-01T14:50:08;9.60;88.40
21815;DHT22;11069;48.988;8.450;2023-03-01T14:52:42;9.40;89.70
21815;DHT22;11069;48.988;8.450;2023-03-01T14:55:21;9.50;90.40
21815;DHT22;11069;48.988;8.450;2023-03-01T14:57:50;9.60;89.80
21815;DHT22;11069;48.988;8.450;2023-03-01T15:00:25;9.50;89.00
21815;DHT22;11069;48.988;8.450;2023-03-01T15:02:53;9.50;89.20
21815;DHT22;11069;48.988;8.450;2023-03-01T15:05:25;9.20;90.10
21815;DHT22;11069;48.988;8.450;2023-03-01T15:07:51;9.60;88.40
21815;DHT22;11069;48.988;8.450;2023-03-01T15:10:21;9.70;87.90
21815;DHT22;11069;48.988;8.450;2023-03-01T15:12:50;9.70;90.00
21815;DHT22;11069;48.988;8.450;2023-03-01T15:16:06;9.50;87.30
21815;DHT22;11069;48.988;8.450;2023-03-01T15:18:32;9.60;88.50
21815;DHT22;11069;48.988;8.450;2023-03-01T15:21:14;9.40;88.40
21815;DHT22;11069;48.988;8.450;2023-03-01T15:23:40;9.00;90.50
21815;DHT22;11069;48.988;8.450;2023-03-01T15:26:06;9.00;90.80
21815;DHT22;11069;48.988;8.450;2023-03-01T15:28:50;9.20;90.00
21815;DHT22;11069;48.988;8.450;2023-03-01T15:31:25;9.10;90.10
21815;DHT22;11069;48.988;8.450;2023-03-01T15:33:51;9.20;91.00
21815;DHT22;11069;48.988;8.450;2023-03-01T15:36:41;9.10;90.20
21815;DHT22;11069;48.988;8.450;2023-03-01T15:39:39;9.00;90.40
21815;DHT22;11069;48.988;8.450;2023-03-01T15:42:07;8.90;91.10
21815;DHT22;11069;48.988;8.450;2023-03-01T15:44:36;8.60;90.50
21815;DHT22;11069;48.988;8.450;2023-03-01T15:47:08;8.40;91.20
21815;DHT22;11069;48.988;8.450;2023-03-01T15:49:46;8.40;91.20
21815;DHT22;11069;48.988;8.450;2023-03-01T15:52:39;8.50;91.20
21815;DHT22;11069;48.988;8.450;2023-03-01T15:55:12;8.40;91.20
21815;DHT22;11069;48.988;8.450;2023-03-01T15:57:39;8.00;91.70
21815;DHT22;11069;48.988;8.450;2023-03-01T16:00:05;8.10;91.70
21815;DHT22;11069;48.988;8.450;2023-03-01T16:02:37;8.10;91.90
21815;DHT22;11069;48.988;8.450;2023-03-01T16:05:03;8.00;91.80
21815;DHT22;11069;48.988;8.450;2023-03-01T16:07:29;8.00;91.90
21815;DHT22;11069;48.988;8.450;2023-03-01T16:09:56;7.90;92.10
21815;DHT22;11069;48.988;8.450;2023-03-01T16:12:22;8.00;91.80
21815;DHT22;11069;48.988;8.450;2023-03-01T16:14:49;8.00;92.20
21815;DHT22;11069;48.988;8.450;2023-03-01T16:17:15;7.90;91.90
21815;DHT22;11069;48.988;8.450;2023-03-01T16:19:41;7.90;92.10
21815;DHT22;11069;48.988;8.450;2023-03-01T16:22:09;7.70;92.70
21815;DHT22;11069;48.988;8.450;2023-03-01T16:24:35;7.70;92.60
21815;DHT22;11069;48.988;8.450;2023-03-01T16:27:01;7.60;92.60
21815;DHT22;11069;48.988;8.450;2023-03-01T16:29:27;7.50;92.70
21815;DHT22;11069;48.988;8.450;2023-03-01T16:31:54;7.50;93.00
21815;DHT22;11069;48.988;8.450;2023-03-01T16:34:20;7.40;92.90
21815;DHT22;11069;48.988;8.450;2023-03-01T16:36:50;7.30;93.40
21815;DHT22;11069;48.988;8.450;2023-03-01T16:39:16;7.20;93.50
21815;DHT22;11069;48.988;8.450;2023-03-01T16:41:41;7.20;93.40
21815;DHT22;11069;48.988;8.450;2023-03-01T16:44:07;7.10;93.70
21815;DHT22;11069;48.988;8.450;2023-03-01T16:46:33;7.10;93.60
21815;DHT22;11069;48.988;8.450;2023-03-01T16:48:58;7.00;94.10
21815;DHT22;11069;48.988;8.450;2023-03-01T16:51:24;6.90;93.90
21815;DHT22;11069;48.988;8.450;2023-03-01T16:53:50;6.80;93.80
21815;DHT22;11069;48.988;8.450;2023-03-01T16:56:17;6.80;93.90
21815;DHT22;11069;48.988;8.450;2023-03-01T16:58:43;6.70;94.10
21815;DHT22;11069;48.988;8.450;2023-03-01T17:01:17;6.60;94.30
21815;DHT22;11069;48.988;8.450;2023-03-01T17:03:44;6.50;94.80
21815;DHT22;11069;48.988;8.450;2023-03-01T17:06:13;6.50;94.30
21815;DHT22;11069;48.988;8.450;2023-03-01T17:08:39;6.40;94.50
21815;DHT22;11069;48.988;8.450;2023-03-01T17:11:10;6.30;94.60
21815;DHT22;11069;48.988;8.450;2023-03-01T17:13:37;6.30;94.90
21815;DHT22;11069;48.988;8.450;2023-03-01T17:16:04;6.20;94.90
21815;DHT22;11069;48.988;8.450;2023-03-01T17:18:31;6.10;95.10
21815;DHT22;11069;48.988;8.450;2023-03-01T17:20:56;6.00;95.20
21815;DHT22;11069;48.988;8.450;2023-03-01T17:23:22;6.00;95.30
21815;DHT22;11069;48.988;8.450;2023-03-01T17:25:48;5.80;95.30
21815;DHT22;11069;48.988;8.450;2023-03-01T17:28:13;5.80;95.60
21815;DHT22;11069;48.988;8.450;2023-03-01T17:30:43;5.60;95.90
21815;DHT22;11069;48.988;8.450;2023-03-01T17:33:10;5.60;96.10
21815;DHT22;11069;48.988;8.450;2023-03-01T17:35:36;5.50;96.30
21815;DHT22;11069;48.988;8.450;2023-03-01T17:38:03;5.40;96.40
21815;DHT22;11069;48.988;8.450;2023-03-01T17:40:29;5.30;96.70